Spirit of South Carolina — WDH8248 — position and weather

sailwx.info

Track history (hours):
 
Tides and Currents Weather Stations Pressure Air Temp Water Temp Dewpoint Dewpoint Depression Visibility Wind Speed Wind Dir Waves Ship Positions

Spirit of South Carolina

Ship's website: https://www.facebook.com/SpiritofSC/

Owner: Spirit of SC, LLC, Charleston, SC. More information available from US FCC via Universal Licensing System and Coast Guard Vessel Documentation Center.

Last reported at 2017-Jun-22 23:25 UTC. Time now 2017-Jul-27 00:37 UTC.
Position N 42°41' W 070°18'.
Warning: this ship's position is 34 days out of date.

Length 43 m.

Type: Sailing vessel. MMSI: 338883000.

Date/timePositionNaut miles runAvg speedWind from/ knotsBaromVisibWave heightAir tempDewpointWater temp
2017-Jun-22 23:25N 42°41' W 070°18'3 7.5
2017-Jun-22 23:01N 42°39' W 070°22'4 7.4
2017-Jun-22 22:29N 42°38' W 070°27'4 8.0
2017-Jun-22 21:59N 42°36' W 070°32'3 6.5
2017-Jun-22 21:31N 42°34' W 070°35'4 7.1
2017-Jun-22 21:00N 42°36' W 070°31'2 5.0
2017-Jun-22 20:30N 42°37' W 070°28'3 6.9
2017-Jun-22 20:01N 42°35' W 070°32'4 7.3
2017-Jun-22 19:29N 42°34' W 070°36'2 4.6
2017-Jun-22 18:57N 42°33' W 070°39'2 4.6
2017-Jun-22 18:30N 42°31' W 070°42'2 3.2
2017-Jun-22 18:00N 42°30' W 070°43'2 2.6
2017-Jun-22 17:25N 42°29' W 070°44'8 4.7
2017-Jun-22 15:41N 42°24' W 070°53'1 5.4
2017-Jun-22 15:30N 42°23' W 070°54'3 6.3
2017-Jun-22 14:59N 42°21' W 070°57'3 5.9
2017-Jun-22 14:29N 42°21' W 071°01'2 1.2
2017-Jun-22 13:09N 42°22' W 071°02'0 2.9
2017-Jun-22 12:59N 42°22' W 071°03'  
2017-Jun-17 17:44N 42°22' W 071°03'1 2.2
2017-Jun-17 17:27N 42°22' W 071°03'2 4.0
2017-Jun-17 17:00N 42°20' W 071°01'2 4.9
2017-Jun-17 16:30N 42°20' W 070°58'3 6.1
2017-Jun-17 15:59N 42°22' W 070°55'1 1.5
2017-Jun-17 15:14N 42°24' W 070°55'0 1.8
2017-Jun-17 14:59N 42°24' W 070°54'1 2.1
2017-Jun-17 14:29N 42°24' W 070°53'1 0.5
2017-Jun-17 13:22N 42°24' W 070°54'2 4.8
2017-Jun-17 13:01N 42°23' W 070°55'3 5.9
2017-Jun-17 12:29N 42°20' W 070°57'3 5.5
2017-Jun-17 12:00N 42°21' W 071°01'2 0.2
2017-Jun-17 03:50N 42°21' W 071°03'0 0.0
2017-Jun-17 02:44N 42°21' W 071°03'0 0.0
2017-Jun-17 02:26N 42°21' W 071°03'0 0.0
2017-Jun-16 16:38N 42°21' W 071°03'0 0.0
2017-Jun-16 16:20N 42°21' W 071°03'0 0.0
2017-Jun-16 15:56N 42°21' W 071°03'0 0.0
2017-Jun-16 15:26N 42°21' W 071°03'0 0.0
2017-Jun-16 14:56N 42°21' W 071°03'0 0.0
2017-Jun-16 14:26N 42°21' W 071°03'0 0.0
2017-Jun-16 13:20N 42°21' W 071°03'0 0.0
2017-Jun-16 12:44N 42°21' W 071°03'0 0.0
2017-Jun-16 04:26N 42°21' W 071°03'0 0.0
2017-Jun-16 03:56N 42°21' W 071°03'0 0.0
2017-Jun-16 03:26N 42°21' W 071°03'0 0.0
2017-Jun-16 02:56N 42°21' W 071°03'0 0.0
2017-Jun-16 02:20N 42°21' W 071°03'0 0.0
2017-Jun-16 01:56N 42°21' W 071°03'0 0.0
2017-Jun-16 01:26N 42°21' W 071°03'0 0.0
2017-Jun-16 00:56N 42°21' W 071°03'0 0.0
2017-Jun-16 00:26N 42°21' W 071°03'0 0.0
2017-Jun-15 16:32N 42°21' W 071°03'0 0.0
2017-Jun-15 16:14N 42°21' W 071°03'0 0.0
2017-Jun-15 15:56N 42°21' W 071°03'0 0.0
2017-Jun-15 15:26N 42°21' W 071°03'0 0.0
2017-Jun-15 14:56N 42°21' W 071°03'0 0.0
2017-Jun-15 14:20N 42°21' W 071°03'0 0.0
2017-Jun-15 13:26N 42°21' W 071°03'0 0.0
2017-Jun-15 12:56N 42°21' W 071°03'0 0.0
2017-Jun-15 12:26N 42°21' W 071°03'0 0.0
2017-Jun-15 11:56N 42°21' W 071°03'0 0.0
2017-Jun-15 11:26N 42°21' W 071°03'0 0.0
2017-Jun-15 10:50N 42°21' W 071°03'0 0.0
2017-Jun-15 10:26N 42°21' W 071°03'0 0.0
2017-Jun-15 09:56N 42°21' W 071°03'0 0.0
2017-Jun-15 09:20N 42°21' W 071°03'0 0.0
2017-Jun-15 08:44N 42°21' W 071°03'0 0.0
2017-Jun-15 05:56N 42°21' W 071°03'0 0.0
2017-Jun-15 05:26N 42°21' W 071°03'0 0.0
2017-Jun-15 04:56N 42°21' W 071°03'0 0.0
2017-Jun-15 04:26N 42°21' W 071°03'0 0.0
2017-Jun-15 03:56N 42°21' W 071°03'0 0.0
2017-Jun-15 03:26N 42°21' W 071°03'0 0.0
2017-Jun-15 02:56N 42°21' W 071°03'0 0.0
2017-Jun-15 02:26N 42°21' W 071°03'0 0.0
2017-Jun-15 01:56N 42°21' W 071°03'0 0.0
2017-Jun-15 01:26N 42°21' W 071°03'0 0.0
2017-Jun-15 00:56N 42°21' W 071°03'0 0.0
2017-Jun-15 00:26N 42°21' W 071°03'0 0.0
2017-Jun-14 23:56N 42°21' W 071°03'0 0.0
2017-Jun-14 23:26N 42°21' W 071°03'0 0.0
2017-Jun-14 22:56N 42°21' W 071°03'1 1.8
2017-Jun-14 22:29N 42°21' W 071°01'3 6.3
2017-Jun-14 21:58N 42°20' W 070°57'4 5.9
2017-Jun-14 21:19N 42°24' W 070°54'2 6.4
2017-Jun-14 21:00N 42°25' W 070°53'3 6.3
2017-Jun-14 20:30N 42°28' W 070°50'3 5.8
2017-Jun-14 19:57N 42°31' W 070°48'5 0.2
2017-Jun-13 12:13N 42°33' W 070°42'2 5.3
2017-Jun-13 11:52N 42°32' W 070°40'2 6.2
2017-Jun-13 11:30N 42°31' W 070°38'1 2.8
2017-Jun-13 11:00N 42°32' W 070°38'1 2.8
2017-Jun-13 10:29N 42°33' W 070°39'2 4.8
2017-Jun-13 10:00N 42°31' W 070°37'  
Track history (hours):
 
Tides and Currents Weather Stations Pressure Air Temp Water Temp Dewpoint Dewpoint Depression Visibility Wind Speed Wind Dir Waves Ship Positions

Spirit of South Carolina

Ship's website: https://www.facebook.com/SpiritofSC/

Owner: Spirit of SC, LLC, Charleston, SC. More information available from US FCC via Universal Licensing System and Coast Guard Vessel Documentation Center.

Last reported at 2017-Jun-22 23:25 UTC. Time now 2017-Jul-27 00:37 UTC.
Position N 42°41' W 070°18'.
Warning: this ship's position is 34 days out of date.

Length 43 m.

Type: Sailing vessel. MMSI: 338883000.

Date/timePositionNaut miles runAvg speedWind from/ knotsBaromVisibWave heightAir tempDewpointWater temp
2017-Jun-22 23:25N 42°41' W 070°18'3 7.5
2017-Jun-22 23:01N 42°39' W 070°22'4 7.4
2017-Jun-22 22:29N 42°38' W 070°27'4 8.0
2017-Jun-22 21:59N 42°36' W 070°32'3 6.5
2017-Jun-22 21:31N 42°34' W 070°35'4 7.1
2017-Jun-22 21:00N 42°36' W 070°31'2 5.0
2017-Jun-22 20:30N 42°37' W 070°28'3 6.9
2017-Jun-22 20:01N 42°35' W 070°32'4 7.3
2017-Jun-22 19:29N 42°34' W 070°36'2 4.6
2017-Jun-22 18:57N 42°33' W 070°39'2 4.6
2017-Jun-22 18:30N 42°31' W 070°42'2 3.2
2017-Jun-22 18:00N 42°30' W 070°43'2 2.6
2017-Jun-22 17:25N 42°29' W 070°44'8 4.7
2017-Jun-22 15:41N 42°24' W 070°53'1 5.4
2017-Jun-22 15:30N 42°23' W 070°54'3 6.3
2017-Jun-22 14:59N 42°21' W 070°57'3 5.9
2017-Jun-22 14:29N 42°21' W 071°01'2 1.2
2017-Jun-22 13:09N 42°22' W 071°02'0 2.9
2017-Jun-22 12:59N 42°22' W 071°03'  
2017-Jun-17 17:44N 42°22' W 071°03'1 2.2
2017-Jun-17 17:27N 42°22' W 071°03'2 4.0
2017-Jun-17 17:00N 42°20' W 071°01'2 4.9
2017-Jun-17 16:30N 42°20' W 070°58'3 6.1
2017-Jun-17 15:59N 42°22' W 070°55'1 1.5
2017-Jun-17 15:14N 42°24' W 070°55'0 1.8
2017-Jun-17 14:59N 42°24' W 070°54'1 2.1
2017-Jun-17 14:29N 42°24' W 070°53'1 0.5
2017-Jun-17 13:22N 42°24' W 070°54'2 4.8
2017-Jun-17 13:01N 42°23' W 070°55'3 5.9
2017-Jun-17 12:29N 42°20' W 070°57'3 5.5
2017-Jun-17 12:00N 42°21' W 071°01'2 0.2
2017-Jun-17 03:50N 42°21' W 071°03'0 0.0
2017-Jun-17 02:44N 42°21' W 071°03'0 0.0
2017-Jun-17 02:26N 42°21' W 071°03'0 0.0
2017-Jun-16 16:38N 42°21' W 071°03'0 0.0
2017-Jun-16 16:20N 42°21' W 071°03'0 0.0
2017-Jun-16 15:56N 42°21' W 071°03'0 0.0
2017-Jun-16 15:26N 42°21' W 071°03'0 0.0
2017-Jun-16 14:56N 42°21' W 071°03'0 0.0
2017-Jun-16 14:26N 42°21' W 071°03'0 0.0
2017-Jun-16 13:20N 42°21' W 071°03'0 0.0
2017-Jun-16 12:44N 42°21' W 071°03'0 0.0
2017-Jun-16 04:26N 42°21' W 071°03'0 0.0
2017-Jun-16 03:56N 42°21' W 071°03'0 0.0
2017-Jun-16 03:26N 42°21' W 071°03'0 0.0
2017-Jun-16 02:56N 42°21' W 071°03'0 0.0
2017-Jun-16 02:20N 42°21' W 071°03'0 0.0
2017-Jun-16 01:56N 42°21' W 071°03'0 0.0
2017-Jun-16 01:26N 42°21' W 071°03'0 0.0
2017-Jun-16 00:56N 42°21' W 071°03'0 0.0
2017-Jun-16 00:26N 42°21' W 071°03'0 0.0
2017-Jun-15 16:32N 42°21' W 071°03'0 0.0
2017-Jun-15 16:14N 42°21' W 071°03'0 0.0
2017-Jun-15 15:56N 42°21' W 071°03'0 0.0
2017-Jun-15 15:26N 42°21' W 071°03'0 0.0
2017-Jun-15 14:56N 42°21' W 071°03'0 0.0
2017-Jun-15 14:20N 42°21' W 071°03'0 0.0
2017-Jun-15 13:26N 42°21' W 071°03'0 0.0
2017-Jun-15 12:56N 42°21' W 071°03'0 0.0
2017-Jun-15 12:26N 42°21' W 071°03'0 0.0
2017-Jun-15 11:56N 42°21' W 071°03'0 0.0
2017-Jun-15 11:26N 42°21' W 071°03'0 0.0
2017-Jun-15 10:50N 42°21' W 071°03'0 0.0
2017-Jun-15 10:26N 42°21' W 071°03'0 0.0
2017-Jun-15 09:56N 42°21' W 071°03'0 0.0
2017-Jun-15 09:20N 42°21' W 071°03'0 0.0
2017-Jun-15 08:44N 42°21' W 071°03'0 0.0
2017-Jun-15 05:56N 42°21' W 071°03'0 0.0
2017-Jun-15 05:26N 42°21' W 071°03'0 0.0
2017-Jun-15 04:56N 42°21' W 071°03'0 0.0
2017-Jun-15 04:26N 42°21' W 071°03'0 0.0
2017-Jun-15 03:56N 42°21' W 071°03'0 0.0
2017-Jun-15 03:26N 42°21' W 071°03'0 0.0
2017-Jun-15 02:56N 42°21' W 071°03'0 0.0
2017-Jun-15 02:26N 42°21' W 071°03'0 0.0
2017-Jun-15 01:56N 42°21' W 071°03'0 0.0
2017-Jun-15 01:26N 42°21' W 071°03'0 0.0
2017-Jun-15 00:56N 42°21' W 071°03'0 0.0
2017-Jun-15 00:26N 42°21' W 071°03'0 0.0
2017-Jun-14 23:56N 42°21' W 071°03'0 0.0
2017-Jun-14 23:26N 42°21' W 071°03'0 0.0
2017-Jun-14 22:56N 42°21' W 071°03'1 1.8
2017-Jun-14 22:29N 42°21' W 071°01'3 6.3
2017-Jun-14 21:58N 42°20' W 070°57'4 5.9
2017-Jun-14 21:19N 42°24' W 070°54'2 6.4
2017-Jun-14 21:00N 42°25' W 070°53'3 6.3
2017-Jun-14 20:30N 42°28' W 070°50'3 5.8
2017-Jun-14 19:57N 42°31' W 070°48'5 0.2
2017-Jun-13 12:13N 42°33' W 070°42'2 5.3
2017-Jun-13 11:52N 42°32' W 070°40'2 6.2
2017-Jun-13 11:30N 42°31' W 070°38'1 2.8
2017-Jun-13 11:00N 42°32' W 070°38'1 2.8
2017-Jun-13 10:29N 42°33' W 070°39'2 4.8
2017-Jun-13 10:00N 42°31' W 070°37'  

Dump ship's entire track history